Time;durP1;ratioP1;P1;durP2;ratioP2;P2;SDS_P1;SDS_P2;PMS_P1;PMS_P2;Temp;Humidity;BMP_temperature;BMP_pressure;BME280_temperature;BME280_humidity;BME280_pressure;Samples;Min_cycle;Max_cycle;Signal;HPM_P1;HPM_P2
2021/03/09 00:00:25;;;;;;;20.92;11.77;;;7.00;85.90;;;;;;5015308;28;20056;-89
2021/03/09 00:02:50;;;;;;;21.75;12.50;;;6.90;86.00;;;;;;4998978;28;20041;-88
2021/03/09 00:05:16;;;;;;;20.90;11.25;;;6.80;86.50;;;;;;4985276;28;20484;-89
2021/03/09 00:07:42;;;;;;;18.20;10.57;;;6.80;86.80;;;;;;4999072;28;20030;-89
2021/03/09 00:10:09;;;;;;;20.02;12.02;;;6.80;86.90;;;;;;5031944;28;20484;-89
2021/03/09 00:12:35;;;;;;;18.95;11.10;;;6.70;87.30;;;;;;5015641;28;20064;-89
2021/03/09 00:15:01;;;;;;;20.90;11.02;;;6.70;87.60;;;;;;5031939;28;20033;-88
2021/03/09 00:17:27;;;;;;;20.15;11.02;;;6.60;87.80;;;;;;5015120;28;20116;-89
2021/03/09 00:19:52;;;;;;;18.85;9.80;;;6.60;88.40;;;;;;4998770;28;20117;-89
2021/03/09 00:22:18;;;;;;;19.95;10.32;;;6.60;88.10;;;;;;4998430;28;20037;-88
2021/03/09 00:24:44;;;;;;;17.05;9.70;;;6.50;88.70;;;;;;4998745;28;20034;-88
2021/03/09 00:27:10;;;;;;;18.95;10.57;;;6.50;89.00;;;;;;5014636;28;20543;-88
2021/03/09 00:29:39;;;;;;;18.63;9.65;;;6.40;89.40;;;;;;4998771;28;20035;-88
2021/03/09 00:32:06;;;;;;;16.08;9.90;;;6.40;89.20;;;;;;5014460;28;20036;-88
2021/03/09 00:34:32;;;;;;;19.15;11.00;;;6.30;89.70;;;;;;4998220;28;20029;-90
2021/03/09 00:36:58;;;;;;;21.23;9.88;;;6.30;89.80;;;;;;4982216;28;20040;-87
2021/03/09 00:39:23;;;;;;;19.08;10.60;;;6.30;90.00;;;;;;5032732;28;20025;-89
2021/03/09 00:41:49;;;;;;;19.83;10.05;;;6.20;90.00;;;;;;5015386;28;20397;-89
2021/03/09 00:44:14;;;;;;;17.25;9.50;;;6.20;90.10;;;;;;4998735;28;20036;-88
2021/03/09 00:46:40;;;;;;;18.27;9.50;;;6.20;90.20;;;;;;4998663;28;20033;-88
2021/03/09 00:49:06;;;;;;;19.35;10.43;;;6.20;90.60;;;;;;5014508;28;20140;-89
2021/03/09 00:51:31;;;;;;;18.67;10.18;;;6.30;90.40;;;;;;5014839;28;20470;-89
2021/03/09 00:53:57;;;;;;;21.83;11.32;;;6.20;90.30;;;;;;5015242;28;20029;-88
2021/03/09 00:56:23;;;;;;;21.50;11.10;;;6.20;90.50;;;;;;5014529;28;20033;-88
2021/03/09 00:58:48;;;;;;;18.13;10.38;;;6.10;90.60;;;;;;5014803;28;20032;-88
2021/03/09 01:01:14;;;;;;;24.48;11.20;;;6.10;90.50;;;;;;4997965;28;20048;-88
2021/03/09 01:03:39;;;;;;;21.02;11.65;;;6.10;90.60;;;;;;4998352;28;20466;-88
2021/03/09 01:06:05;;;;;;;22.20;12.40;;;6.10;90.60;;;;;;4997934;28;20025;-89
2021/03/09 01:08:31;;;;;;;23.77;12.38;;;6.10;90.80;;;;;;4998776;28;20061;-88
2021/03/09 01:10:56;;;;;;;20.05;11.60;;;6.20;90.80;;;;;;5001606;28;20068;-87
2021/03/09 01:13:22;;;;;;;21.88;12.95;;;6.20;90.70;;;;;;5018041;28;20081;-88
2021/03/09 01:15:48;;;;;;;24.50;13.23;;;6.20;90.90;;;;;;5018230;28;20444;-87
2021/03/09 01:18:13;;;;;;;26.23;12.57;;;6.10;91.00;;;;;;5017948;28;20029;-88
2021/03/09 01:20:39;;;;;;;26.70;14.43;;;6.10;91.00;;;;;;5001532;28;20033;-87
2021/03/09 01:23:05;;;;;;;26.38;13.77;;;6.00;91.40;;;;;;5018006;28;20071;-88
2021/03/09 01:25:30;;;;;;;27.60;15.82;;;6.00;91.40;;;;;;5002091;28;20025;-89
2021/03/09 01:27:56;;;;;;;33.17;17.38;;;5.90;91.60;;;;;;5001699;28;20078;-87
2021/03/09 01:30:22;;;;;;;29.00;15.05;;;5.90;91.90;;;;;;5001295;28;20466;-89
2021/03/09 01:32:48;;;;;;;31.15;17.17;;;5.80;91.80;;;;;;5016137;28;20032;-88
2021/03/09 01:35:14;;;;;;;29.00;16.88;;;5.80;92.30;;;;;;5017725;28;20385;-88
2021/03/09 01:37:40;;;;;;;38.92;18.85;;;5.70;92.20;;;;;;5017023;28;20029;-89
2021/03/09 01:40:08;;;;;;;36.28;17.85;;;5.70;92.40;;;;;;5001220;28;20021;-88
2021/03/09 01:42:35;;;;;;;40.42;19.38;;;5.70;92.50;;;;;;5035441;28;20120;-89
2021/03/09 01:45:01;;;;;;;40.53;20.85;;;5.70;92.80;;;;;;5035176;28;20179;-89
2021/03/09 01:47:30;;;;;;;38.40;19.67;;;5.60;93.00;;;;;;5001178;28;20114;-88
2021/03/09 01:49:56;;;;;;;45.55;22.23;;;5.50;93.10;;;;;;5035382;28;20032;-89
2021/03/09 01:52:22;;;;;;;43.78;20.17;;;5.50;93.30;;;;;;5034854;28;20390;-89
2021/03/09 01:54:47;;;;;;;39.78;20.98;;;5.50;93.40;;;;;;5018158;28;20048;-88
2021/03/09 01:57:13;;;;;;;41.75;20.02;;;5.50;93.40;;;;;;5018014;28;20025;-89
2021/03/09 01:59:41;;;;;;;38.20;19.85;;;5.40;93.60;;;;;;4985525;28;20043;-90
2021/03/09 02:02:09;;;;;;;42.67;21.75;;;5.40;93.50;;;;;;5017766;28;20120;-88
2021/03/09 02:04:35;;;;;;;49.28;23.50;;;5.40;93.70;;;;;;4985803;28;20049;-88
2021/03/09 02:07:01;;;;;;;45.35;21.35;;;5.40;93.90;;;;;;5001595;28;20026;-90
2021/03/09 02:09:26;;;;;;;51.22;23.17;;;5.40;94.00;;;;;;5017350;28;20185;-91
2021/03/09 02:11:52;;;;;;;48.25;23.15;;;5.20;94.20;;;;;;5017769;28;20417;-90
2021/03/09 02:14:38;;;;;;;45.67;23.13;;;5.30;94.30;;;;;;5017579;28;20030;-90
2021/03/09 02:17:23;;;;;;;46.92;22.73;;;5.20;94.30;;;;;;5035053;28;20021;-88
2021/03/09 02:20:07;;;;;;;55.33;26.23;;;5.30;94.40;;;;;;5016939;28;20444;-88
2021/03/09 02:23:10;;;;;;;49.55;23.75;;;5.20;94.60;;;;;;5016649;28;20038;-91
2021/03/09 02:25:47;;;;;;;54.35;25.08;;;5.20;94.80;;;;;;5023016;28;20590;-89
2021/03/09 02:28:18;;;;;;;57.92;24.67;;;5.20;94.80;;;;;;5018597;28;20017;-89
2021/03/09 02:30:45;;;;;;;55.45;25.33;;;5.20;94.80;;;;;;5053571;28;20108;-89
2021/03/09 02:33:19;;;;;;;52.45;25.42;;;5.20;94.80;;;;;;5036187;28;20021;-87
2021/03/09 02:36:01;;;;;;;59.15;27.52;;;5.20;94.80;;;;;;5055003;28;20422;-90
2021/03/09 02:38:36;;;;;;;55.63;25.88;;;5.30;94.90;;;;;;5040800;28;20025;-89
2021/03/09 02:41:03;;;;;;;58.70;27.50;;;5.30;94.80;;;;;;5036965;28;20029;-89
2021/03/09 02:43:30;;;;;;;63.38;27.27;;;5.30;94.90;;;;;;5036653;28;20086;-89
2021/03/09 02:45:58;;;;;;;62.05;29.08;;;5.20;95.00;;;;;;5054585;28;20040;-90
2021/03/09 02:48:26;;;;;;;54.47;26.02;;;5.10;95.20;;;;;;5054463;28;20021;-89
2021/03/09 02:50:56;;;;;;;53.55;26.38;;;5.20;95.20;;;;;;5036765;28;20112;-89
2021/03/09 02:53:27;;;;;;;63.63;27.73;;;5.20;95.20;;;;;;5036454;28;20044;-89
2021/03/09 02:55:53;;;;;;;50.72;27.00;;;5.20;95.20;;;;;;5036968;28;20021;-89
2021/03/09 02:58:20;;;;;;;56.90;27.42;;;5.20;95.30;;;;;;5036314;28;20040;-89
2021/03/09 03:00:51;;;;;;;64.47;28.75;;;5.20;95.40;;;;;;5036536;28;20167;-88
2021/03/09 03:03:18;;;;;;;60.90;29.17;;;5.20;95.40;;;;;;5036164;28;20115;-88
2021/03/09 03:05:46;;;;;;;65.68;29.27;;;5.10;95.50;;;;;;5036004;28;20656;-89
2021/03/09 03:08:13;;;;;;;59.33;28.77;;;5.20;95.50;;;;;;5020595;28;20492;-90
2021/03/09 03:10:42;;;;;;;65.45;28.80;;;5.20;95.50;;;;;;5021775;28;20132;-88
2021/03/09 03:13:10;;;;;;;76.20;34.15;;;5.10;95.70;;;;;;5054214;28;20104;-89
2021/03/09 03:15:36;;;;;;;65.95;31.30;;;5.10;95.80;;;;;;5035341;28;20025;-88
2021/03/09 03:18:05;;;;;;;67.35;31.85;;;5.10;95.70;;;;;;5054298;28;20025;-88
2021/03/09 03:20:32;;;;;;;70.03;31.67;;;5.10;95.80;;;;;;5052515;28;20024;-88
2021/03/09 03:22:59;;;;;;;56.58;28.83;;;5.20;95.60;;;;;;5019361;28;20485;-87
2021/03/09 03:25:25;;;;;;;81.63;35.30;;;5.20;95.70;;;;;;5019836;28;20401;-89
2021/03/09 03:27:52;;;;;;;92.43;38.72;;;5.20;95.70;;;;;;5022062;28;20070;-88
2021/03/09 03:30:18;;;;;;;68.40;34.10;;;5.20;95.70;;;;;;5052876;28;20052;-90
2021/03/09 03:32:45;;;;;;;88.63;37.58;;;5.20;95.80;;;;;;5018408;28;20104;-88
2021/03/09 03:35:13;;;;;;;79.50;36.50;;;5.20;95.90;;;;;;5043328;28;20521;-89
2021/03/09 03:37:40;;;;;;;84.85;37.55;;;5.20;95.80;;;;;;5033177;28;20029;-89
2021/03/09 03:40:13;;;;;;;93.28;41.22;;;5.20;96.00;;;;;;5022000;28;20329;-88
2021/03/09 03:42:39;;;;;;;73.82;35.95;;;5.10;96.10;;;;;;5034908;28;20094;-87
2021/03/09 03:45:07;;;;;;;74.97;35.03;;;5.10;96.10;;;;;;5015417;28;20021;-88
2021/03/09 03:47:34;;;;;;;77.57;37.67;;;5.10;96.00;;;;;;5027798;28;20025;-88
2021/03/09 03:50:00;;;;;;;75.25;37.63;;;5.10;96.30;;;;;;5018717;28;20029;-89
2021/03/09 03:52:42;;;;;;;80.45;36.42;;;5.10;96.20;;;;;;5034992;28;20032;-89
2021/03/09 03:55:29;;;;;;;91.75;40.88;;;5.20;96.10;;;;;;5053176;28;20032;-89
2021/03/09 03:58:05;;;;;;;112.43;45.90;;;5.20;96.20;;;;;;5024185;28;20044;-89
2021/03/09 04:00:32;;;;;;;109.47;43.95;;;5.20;96.20;;;;;;5015661;28;20381;-89
2021/03/09 04:02:58;;;;;;;84.95;40.30;;;5.10;96.40;;;;;;4998759;28;20041;-89
2021/03/09 04:05:25;;;;;;;80.20;38.80;;;5.10;96.50;;;;;;4998721;28;20017;-88
2021/03/09 04:07:53;;;;;;;104.97;45.08;;;5.10;96.50;;;;;;5033098;28;20508;-87
2021/03/09 04:10:19;;;;;;;106.05;44.92;;;5.10;96.60;;;;;;5032317;28;20057;-89
2021/03/09 04:12:45;;;;;;;118.55;46.80;;;5.00;96.80;;;;;;5015922;28;20036;-88
2021/03/09 04:15:13;;;;;;;106.88;45.72;;;5.00;96.80;;;;;;4998923;28;20033;-89
2021/03/09 04:17:40;;;;;;;99.63;43.53;;;5.10;96.70;;;;;;5014877;28;20437;-89
2021/03/09 04:20:08;;;;;;;97.18;42.33;;;5.10;96.70;;;;;;5032597;28;20079;-89
2021/03/09 04:22:34;;;;;;;108.43;45.55;;;5.10;96.70;;;;;;5015156;28;20037;-89
2021/03/09 04:25:00;;;;;;;111.43;46.45;;;5.10;96.70;;;;;;4983008;28;20040;-90
2021/03/09 04:27:26;;;;;;;116.40;49.25;;;5.10;96.90;;;;;;4998502;28;20030;-89
2021/03/09 04:29:54;;;;;;;104.28;45.65;;;5.10;96.90;;;;;;5032233;28;20462;-89
2021/03/09 04:32:21;;;;;;;115.63;47.17;;;5.10;97.00;;;;;;5014990;28;20045;-89
2021/03/09 04:34:47;;;;;;;100.38;45.63;;;5.10;97.00;;;;;;5014524;28;20021;-88
2021/03/09 04:37:14;;;;;;;108.90;46.60;;;5.10;97.00;;;;;;5015973;28;20454;-89
2021/03/09 04:39:44;;;;;;;99.28;43.40;;;5.10;97.00;;;;;;5014585;28;20033;-88
2021/03/09 04:42:11;;;;;;;99.47;44.80;;;5.10;97.00;;;;;;5032696;28;20466;-89
2021/03/09 04:44:38;;;;;;;116.15;49.63;;;5.10;96.90;;;;;;5000883;28;20071;-88
2021/03/09 04:47:04;;;;;;;111.18;45.55;;;5.10;96.90;;;;;;5036814;28;20082;-88
2021/03/09 04:49:33;;;;;;;116.28;48.58;;;5.20;96.90;;;;;;5036520;28;20036;-89
2021/03/09 04:51:59;;;;;;;104.93;44.35;;;5.20;96.90;;;;;;5018891;28;20032;-88
2021/03/09 04:54:26;;;;;;;86.93;41.47;;;5.10;97.10;;;;;;5018902;28;20378;-87
2021/03/09 04:56:53;;;;;;;82.25;38.13;;;5.10;97.00;;;;;;5031200;28;20014;-87
2021/03/09 04:59:19;;;;;;;140.77;51.10;;;5.20;97.00;;;;;;5027017;28;20036;-88
2021/03/09 05:01:45;;;;;;;108.63;45.55;;;5.20;97.10;;;;;;5018326;28;20116;-88
2021/03/09 05:04:10;;;;;;;99.25;42.67;;;5.10;97.10;;;;;;5017818;28;20022;-88
2021/03/09 05:06:36;;;;;;;93.47;42.65;;;5.20;97.00;;;;;;5035960;28;20045;-88
2021/03/09 05:09:03;;;;;;;90.07;41.03;;;5.20;97.10;;;;;;5018049;28;20029;-87
2021/03/09 05:11:30;;;;;;;101.53;40.85;;;5.20;97.30;;;;;;5035360;28;20565;-88
2021/03/09 05:13:56;;;;;;;110.07;45.67;;;5.20;97.10;;;;;;5018035;28;20033;-88
2021/03/09 05:16:22;;;;;;;95.30;42.95;;;5.20;97.20;;;;;;5017828;28;20555;-88
2021/03/09 05:18:48;;;;;;;121.18;48.55;;;5.20;97.10;;;;;;5001273;28;20029;-88
2021/03/09 05:21:14;;;;;;;135.82;51.75;;;5.20;97.20;;;;;;5001785;28;20033;-88
2021/03/09 05:23:40;;;;;;;111.95;47.38;;;5.20;97.30;;;;;;5027468;28;20099;-86
2021/03/09 05:26:05;;;;;;;114.15;45.55;;;5.10;97.40;;;;;;5033807;28;20029;-88
2021/03/09 05:28:31;;;;;;;98.70;43.03;;;5.10;97.40;;;;;;5001073;28;20493;-88
2021/03/09 05:30:57;;;;;;;102.57;43.55;;;5.10;97.30;;;;;;5001090;28;20033;-88
2021/03/09 05:33:22;;;;;;;119.38;48.35;;;5.10;97.40;;;;;;5035135;28;20032;-88
2021/03/09 05:35:48;;;;;;;97.32;43.28;;;5.20;97.40;;;;;;5017095;28;20132;-87
2021/03/09 05:38:13;;;;;;;96.50;41.90;;;5.20;97.40;;;;;;5000979;28;20052;-88
2021/03/09 05:40:39;;;;;;;108.68;44.38;;;5.20;97.40;;;;;;4997825;28;20034;-88
2021/03/09 05:43:05;;;;;;;123.10;49.88;;;5.20;97.30;;;;;;5016773;28;20063;-87
2021/03/09 05:45:31;;;;;;;92.57;41.65;;;5.20;97.30;;;;;;5034642;28;20040;-86
2021/03/09 05:47:58;;;;;;;113.65;47.80;;;5.30;97.20;;;;;;5017379;28;20382;-88
2021/03/09 05:50:24;;;;;;;93.43;44.10;;;5.30;97.20;;;;;;5000479;28;20036;-87
2021/03/09 05:52:50;;;;;;;130.02;50.47;;;5.30;97.20;;;;;;5054797;28;20028;-88
2021/03/09 05:55:16;;;;;;;121.00;49.03;;;5.30;97.30;;;;;;5017485;28;20021;-87
2021/03/09 05:57:42;;;;;;;112.78;47.42;;;5.30;97.20;;;;;;5017030;28;20036;-89
2021/03/09 06:00:10;;;;;;;115.38;48.45;;;5.30;97.30;;;;;;5046767;28;20048;-88
2021/03/09 06:02:35;;;;;;;135.90;52.95;;;5.30;97.40;;;;;;5047593;28;20132;-87
2021/03/09 06:05:06;;;;;;;122.40;50.80;;;5.30;97.40;;;;;;5034553;28;20525;-88
2021/03/09 06:07:32;;;;;;;106.82;46.38;;;5.30;97.40;;;;;;5049472;28;20024;-87
2021/03/09 06:09:58;;;;;;;108.18;45.88;;;5.30;97.40;;;;;;5014133;28;20041;-87
2021/03/09 06:12:25;;;;;;;108.95;47.63;;;5.30;97.40;;;;;;5031798;28;20104;-87
2021/03/09 06:15:00;;;;;;;112.20;46.95;;;5.30;97.30;;;;;;5034349;28;20031;-88
2021/03/09 06:17:37;;;;;;;139.93;54.38;;;5.40;97.30;;;;;;5046540;28;20018;-85
2021/03/09 06:20:05;;;;;;;168.98;59.03;;;5.40;97.30;;;;;;4999851;28;20033;-87
2021/03/09 06:22:42;;;;;;;117.50;49.65;;;5.30;97.40;;;;;;5051501;28;20469;-88
2021/03/09 06:25:10;;;;;;;108.78;48.95;;;5.30;97.40;;;;;;5049314;28;20033;-87
2021/03/09 06:27:37;;;;;;;111.40;48.65;;;5.40;97.40;;;;;;5050319;28;20029;-87
2021/03/09 06:30:06;;;;;;;100.18;43.03;;;5.40;97.40;;;;;;5032692;28;20021;-87
2021/03/09 06:32:43;;;;;;;115.57;46.95;;;5.40;97.40;;;;;;5051007;28;20112;-87
2021/03/09 06:35:25;;;;;;;153.65;53.92;;;5.40;97.30;;;;;;5044517;28;20051;-87
2021/03/09 06:37:51;;;;;;;117.47;47.95;;;5.40;97.40;;;;;;5035100;28;20044;-88
2021/03/09 06:40:18;;;;;;;96.53;43.83;;;5.40;97.40;;;;;;5031812;28;20028;-88
2021/03/09 06:42:44;;;;;;;122.53;51.45;;;5.50;97.40;;;;;;5011115;28;20116;-87
2021/03/09 06:45:20;;;;;;;137.43;52.97;;;5.50;97.50;;;;;;5028242;28;20117;-87
2021/03/09 06:47:48;;;;;;;110.63;49.00;;;5.40;97.50;;;;;;5017753;28;20423;-87
2021/03/09 06:50:16;;;;;;;138.32;51.38;;;5.50;97.50;;;;;;5019380;28;20029;-87
2021/03/09 06:52:43;;;;;;;108.25;46.53;;;5.50;97.40;;;;;;5017406;28;20028;-88
2021/03/09 06:55:11;;;;;;;105.90;47.30;;;5.50;97.50;;;;;;5047566;28;20465;-88
2021/03/09 06:57:37;;;;;;;106.50;45.42;;;5.50;97.40;;;;;;5048070;28;20091;-86
2021/03/09 07:00:06;;;;;;;104.40;46.38;;;5.60;97.30;;;;;;5024304;28;20036;-87
2021/03/09 07:02:32;;;;;;;97.60;44.20;;;5.60;97.30;;;;;;5050046;28;20029;-88
2021/03/09 07:05:12;;;;;;;101.50;45.13;;;5.60;97.30;;;;;;5029427;28;20485;-87
2021/03/09 07:07:41;;;;;;;110.07;48.38;;;5.70;97.30;;;;;;5049169;28;20072;-87
2021/03/09 07:10:08;;;;;;;114.18;47.83;;;5.60;97.30;;;;;;5045702;28;20022;-88
2021/03/09 07:12:35;;;;;;;140.68;55.42;;;5.60;97.30;;;;;;5033579;28;20513;-88
2021/03/09 07:15:02;;;;;;;104.95;44.83;;;5.70;97.40;;;;;;5048183;28;20111;-89
2021/03/09 07:17:31;;;;;;;131.20;51.38;;;5.70;97.30;;;;;;5002313;28;20032;-88
2021/03/09 07:19:58;;;;;;;118.32;48.53;;;5.70;97.50;;;;;;5045767;28;20029;-87
2021/03/09 07:22:25;;;;;;;98.30;44.30;;;5.70;97.50;;;;;;5026146;28;20128;-88
2021/03/09 07:25:05;;;;;;;113.32;47.03;;;5.70;97.40;;;;;;5013288;28;20033;-88
2021/03/09 07:27:48;;;;;;;147.27;53.83;;;5.70;97.40;;;;;;5048498;28;20040;-88
2021/03/09 07:30:15;;;;;;;101.85;44.83;;;5.80;97.50;;;;;;5051457;28;20017;-88
2021/03/09 07:32:50;;;;;;;93.63;42.22;;;5.80;97.40;;;;;;5048098;28;20029;-87
2021/03/09 07:35:20;;;;;;;104.70;44.55;;;5.80;97.40;;;;;;5041854;28;20480;-88
2021/03/09 07:37:47;;;;;;;182.18;60.95;;;5.80;97.40;;;;;;5029976;28;20034;-87
2021/03/09 07:40:18;;;;;;;138.00;52.13;;;5.90;97.40;;;;;;5028371;28;20546;-87
2021/03/09 07:42:45;;;;;;;106.93;44.63;;;5.80;97.50;;;;;;5033179;28;20032;-87
2021/03/09 07:45:17;;;;;;;155.43;52.90;;;5.90;97.50;;;;;;5044102;28;20029;-87
2021/03/09 07:47:55;;;;;;;129.18;50.05;;;5.90;97.60;;;;;;5047560;28;20048;-87
2021/03/09 07:50:23;;;;;;;108.60;45.58;;;5.90;97.60;;;;;;5024510;28;20123;-86
2021/03/09 07:53:12;;;;;;;117.10;44.67;;;5.90;98.00;;;;;;5030592;28;20032;-88
2021/03/09 07:55:45;;;;;;;84.72;37.58;;;5.90;97.60;;;;;;5024517;28;20029;-87
2021/03/09 07:58:25;;;;;;;101.72;41.38;;;5.90;97.50;;;;;;5020004;28;20040;-86
2021/03/09 08:00:59;;;;;;;81.40;36.63;;;6.00;97.70;;;;;;5027420;28;20051;-87
2021/03/09 08:03:36;;;;;;;60.13;31.23;;;6.00;97.90;;;;;;5035611;28;20111;-88
2021/03/09 08:06:13;;;;;;;61.28;30.05;;;6.00;97.50;;;;;;5013792;28;20217;-88
2021/03/09 08:08:49;;;;;;;116.80;39.72;;;6.10;97.50;;;;;;5040322;28;20029;-87
2021/03/09 08:11:24;;;;;;;65.68;31.60;;;6.10;97.60;;;;;;5051423;28;20108;-89
2021/03/09 08:14:08;;;;;;;57.10;28.30;;;6.20;97.50;;;;;;5051700;28;20053;-91
2021/03/09 08:16:38;;;;;;;57.45;28.33;;;6.20;97.50;;;;;;5050652;28;20033;-87
2021/03/09 08:19:12;;;;;;;56.65;28.52;;;6.20;97.50;;;;;;5051648;28;20029;-87
2021/03/09 08:21:51;;;;;;;49.47;25.38;;;6.30;97.50;;;;;;5033490;28;20462;-92
2021/03/09 08:24:37;;;;;;;55.78;26.95;;;6.30;97.40;;;;;;5036943;28;20078;-95
2021/03/09 08:27:03;;;;;;;45.30;25.73;;;6.40;97.40;;;;;;5027405;28;20113;-93
2021/03/09 08:29:28;;;;;;;47.05;23.75;;;6.40;97.50;;;;;;5006140;28;20160;-91
2021/03/09 08:32:25;;;;;;;38.72;20.40;;;6.40;97.40;;;;;;5015419;28;20021;-94
2021/03/09 08:35:11;;;;;;;40.38;21.77;;;6.50;97.40;;;;;;5033243;28;20053;-92
2021/03/09 08:37:42;;;;;;;41.15;20.98;;;6.50;97.40;;;;;;5033323;28;20041;-95
2021/03/09 08:40:10;;;;;;;38.63;20.87;;;6.50;97.60;;;;;;5036035;28;20029;-93
2021/03/09 08:43:00;;;;;;;42.33;21.25;;;6.60;97.40;;;;;;4999772;28;20310;-94
2021/03/09 08:45:40;;;;;;;37.53;19.52;;;6.60;97.40;;;;;;5047401;28;20588;-93
2021/03/09 08:48:08;;;;;;;38.72;18.92;;;6.70;97.40;;;;;;5008916;28;20051;-94
2021/03/09 08:50:42;;;;;;;30.25;16.10;;;6.70;97.40;;;;;;5009555;28;20026;-89
2021/03/09 08:53:27;;;;;;;26.40;14.40;;;6.70;97.40;;;;;;5008946;28;20386;-93
2021/03/09 08:56:05;;;;;;;29.45;12.70;;;6.80;97.40;;;;;;5020843;28;20034;-91
2021/03/09 08:58:32;;;;;;;23.13;12.75;;;6.80;97.40;;;;;;5045888;28;20029;-91
2021/03/09 09:00:59;;;;;;;20.60;11.25;;;6.80;97.40;;;;;;4999746;28;20041;-94
2021/03/09 09:03:34;;;;;;;19.05;10.77;;;6.90;97.40;;;;;;5015232;28;20022;-88
2021/03/09 09:06:01;;;;;;;17.90;9.45;;;6.90;97.40;;;;;;5013512;28;20029;-87
2021/03/09 09:08:26;;;;;;;16.70;8.68;;;6.90;97.40;;;;;;5050274;28;20041;-88
2021/03/09 09:10:52;;;;;;;14.10;8.52;;;7.00;97.40;;;;;;5050495;28;20551;-87
2021/03/09 09:13:35;;;;;;;13.85;8.23;;;7.00;97.30;;;;;;5045447;28;20029;-88
2021/03/09 09:16:02;;;;;;;14.73;7.72;;;7.10;97.30;;;;;;5047271;28;20135;-88
2021/03/09 09:18:31;;;;;;;12.38;7.30;;;7.10;97.30;;;;;;5049104;28;20040;-89
2021/03/09 09:20:58;;;;;;;14.25;7.80;;;7.10;97.30;;;;;;5047877;28;20044;-89
2021/03/09 09:23:28;;;;;;;16.40;7.13;;;7.10;97.30;;;;;;5045474;28;20473;-89
2021/03/09 09:25:56;;;;;;;15.88;7.30;;;7.10;97.20;;;;;;5048229;28;20029;-89
2021/03/09 09:28:26;;;;;;;13.45;6.47;;;7.20;97.20;;;;;;5044633;28;20025;-87
2021/03/09 09:30:53;;;;;;;14.35;6.50;;;7.20;97.20;;;;;;5046546;28;20017;-88
2021/03/09 09:33:19;;;;;;;10.57;5.93;;;7.20;97.10;;;;;;5054623;28;20005;-88
2021/03/09 09:35:47;;;;;;;13.88;6.50;;;7.20;97.40;;;;;;5031964;28;20028;-87
2021/03/09 09:38:16;;;;;;;12.35;6.30;;;7.20;97.20;;;;;;5042373;28;20031;-87
2021/03/09 09:40:47;;;;;;;10.65;5.80;;;7.20;97.20;;;;;;5018800;28;20029;-90
2021/03/09 09:43:14;;;;;;;;;;;7.30;97.30;;;;;;5018941;28;20052;-93
2021/03/09 09:45:48;;;;;;;9.02;5.03;;;7.30;97.30;;;;;;5037179;28;19975;-94
2021/03/09 09:48:20;;;;;;;10.88;5.18;;;7.30;97.30;;;;;;5040629;28;20028;-94
2021/03/09 09:50:48;;;;;;;8.57;4.90;;;7.40;97.20;;;;;;5030484;28;20080;-95
2021/03/09 09:53:30;;;;;;;8.65;4.20;;;7.40;97.20;;;;;;5016449;28;20152;-95
2021/03/09 09:55:57;;;;;;;10.77;4.32;;;7.40;97.10;;;;;;5042522;28;20041;-94
2021/03/09 09:58:37;;;;;;;7.07;3.78;;;7.40;97.10;;;;;;5027316;28;20067;-94
2021/03/09 10:01:03;;;;;;;7.68;3.80;;;7.40;97.00;;;;;;5032595;28;20021;-91
2021/03/09 10:03:28;;;;;;;5.07;3.55;;;7.50;96.80;;;;;;5033007;28;20051;-90
2021/03/09 10:05:54;;;;;;;6.65;3.28;;;7.40;96.90;;;;;;5027668;28;20032;-94
2021/03/09 10:08:35;;;;;;;5.95;3.85;;;7.50;96.90;;;;;;5003896;28;20468;-91
2021/03/09 10:11:03;;;;;;;6.90;3.42;;;7.50;97.00;;;;;;5048775;28;20028;-94
2021/03/09 10:13:29;;;;;;;6.78;3.20;;;7.50;97.00;;;;;;5033251;28;20041;-93
2021/03/09 10:15:54;;;;;;;5.65;3.35;;;7.50;97.00;;;;;;5049439;28;20522;-94
2021/03/09 10:18:31;;;;;;;6.05;3.58;;;7.60;97.10;;;;;;5027916;28;20016;-92
2021/03/09 10:21:12;;;;;;;4.60;3.15;;;7.60;97.00;;;;;;5048917;28;20026;-90
2021/03/09 10:23:58;;;;;;;8.95;3.58;;;7.60;97.00;;;;;;5028695;28;20049;-94
2021/03/09 10:26:34;;;;;;;5.80;3.10;;;7.60;96.90;;;;;;5017130;28;20021;-92
2021/03/09 10:29:05;;;;;;;5.78;3.08;;;7.70;96.60;;;;;;5033822;28;20025;-92
2021/03/09 10:31:49;;;;;;;9.20;4.07;;;7.60;96.60;;;;;;5017297;28;20454;-92
2021/03/09 10:34:20;;;;;;;5.85;2.92;;;7.60;96.50;;;;;;5020936;28;20029;-93
2021/03/09 10:36:56;;;;;;;;;;;7.60;96.40;;;;;;5028588;28;20141;-94
2021/03/09 10:39:27;;;;;;;6.18;2.90;;;7.60;96.30;;;;;;5029138;28;19912;-91
2021/03/09 10:41:53;;;;;;;4.82;2.85;;;7.60;96.40;;;;;;5014085;28;20022;-91
2021/03/09 10:44:32;;;;;;;6.90;3.20;;;7.60;96.50;;;;;;5016229;28;20585;-92
2021/03/09 10:47:00;;;;;;;7.13;2.97;;;7.60;96.50;;;;;;5019510;28;20021;-93
2021/03/09 10:49:27;;;;;;;4.55;2.72;;;7.60;96.60;;;;;;5036540;28;20029;-93
2021/03/09 10:51:59;;;;;;;7.43;3.20;;;7.60;96.60;;;;;;4987455;28;20034;-92
2021/03/09 10:54:25;;;;;;;5.00;2.78;;;7.60;96.60;;;;;;5025127;28;20025;-93
2021/03/09 10:56:50;;;;;;;5.80;3.20;;;7.60;96.60;;;;;;5038220;28;20031;-94
2021/03/09 10:59:16;;;;;;;3.97;2.38;;;7.70;96.60;;;;;;5002371;28;20116;-93
2021/03/09 11:01:42;;;;;;;4.30;2.08;;;7.70;96.60;;;;;;5038789;28;20039;-94
2021/03/09 11:04:08;;;;;;;3.38;2.20;;;7.70;96.60;;;;;;5000146;28;20033;-91
2021/03/09 11:06:33;;;;;;;3.63;2.03;;;7.70;96.50;;;;;;5036447;28;20358;-93
2021/03/09 11:08:59;;;;;;;2.83;1.73;;;7.70;96.50;;;;;;5035799;28;20017;-92
2021/03/09 11:11:25;;;;;;;3.45;2.08;;;7.80;96.50;;;;;;5023569;28;20052;-93
2021/03/09 11:13:51;;;;;;;4.63;1.85;;;7.80;96.50;;;;;;5043342;28;20484;-93
2021/03/09 11:16:17;;;;;;;3.15;1.75;;;7.80;96.50;;;;;;5047307;28;20216;-94
2021/03/09 11:18:45;;;;;;;1.88;1.50;;;7.80;96.50;;;;;;5045789;28;20465;-93
2021/03/09 11:21:10;;;;;;;2.45;1.70;;;7.80;96.50;;;;;;5027757;28;20052;-92
2021/03/09 11:23:39;;;;;;;3.05;1.42;;;7.90;96.60;;;;;;5030183;28;20028;-91
2021/03/09 11:26:06;;;;;;;4.05;2.00;;;7.90;96.50;;;;;;4999905;28;20033;-84
2021/03/09 11:28:35;;;;;;;6.68;2.25;;;7.90;96.30;;;;;;5016052;28;20048;-89
2021/03/09 11:31:01;;;;;;;3.13;1.80;;;7.90;96.30;;;;;;5033788;28;20025;-92
2021/03/09 11:33:26;;;;;;;3.20;1.95;;;7.90;96.30;;;;;;5045839;28;20466;-92
2021/03/09 11:35:52;;;;;;;4.43;1.98;;;7.90;96.20;;;;;;5044691;28;20063;-90
2021/03/09 11:38:20;;;;;;;3.78;1.98;;;8.00;96.20;;;;;;5048384;28;20035;-94
2021/03/09 11:40:45;;;;;;;3.08;2.10;;;8.00;96.10;;;;;;5041832;28;20051;-89
2021/03/09 11:43:11;;;;;;;3.83;1.52;;;8.00;96.00;;;;;;5051028;28;20470;-87
2021/03/09 11:45:37;;;;;;;2.35;1.52;;;8.00;95.60;;;;;;5026374;28;20037;-88
2021/03/09 11:48:02;;;;;;;4.65;2.35;;;8.00;95.80;;;;;;5024601;28;20021;-87
2021/03/09 11:50:28;;;;;;;2.83;1.60;;;8.00;95.80;;;;;;5046900;28;20032;-88
2021/03/09 11:52:54;;;;;;;6.07;1.60;;;8.00;95.70;;;;;;5047511;28;20048;-92
2021/03/09 11:55:19;;;;;;;2.85;1.40;;;8.00;95.80;;;;;;5011027;28;20031;-87
2021/03/09 11:57:45;;;;;;;2.33;1.60;;;8.00;95.80;;;;;;5046273;28;20045;-87
2021/03/09 12:00:11;;;;;;;1.73;1.20;;;8.00;95.80;;;;;;4996423;28;20036;-87
2021/03/09 12:02:37;;;;;;;1.00;0.90;;;8.00;95.80;;;;;;5031372;28;20033;-88
2021/03/09 12:05:05;;;;;;;3.08;0.80;;;8.10;95.80;;;;;;5014846;28;20040;-88
2021/03/09 12:07:30;;;;;;;1.30;0.93;;;8.00;95.80;;;;;;5003432;28;20394;-88
2021/03/09 12:09:56;;;;;;;3.40;0.90;;;8.10;95.80;;;;;;5032863;28;20032;-88
2021/03/09 12:12:21;;;;;;;1.88;0.85;;;8.10;95.70;;;;;;5014531;28;20046;-88
2021/03/09 12:14:47;;;;;;;1.20;1.10;;;8.00;95.70;;;;;;5032684;28;20508;-87
2021/03/09 12:17:13;;;;;;;1.02;0.90;;;8.00;95.70;;;;;;5014980;28;20037;-87
2021/03/09 12:19:38;;;;;;;3.03;1.00;;;8.00;95.70;;;;;;4998478;28;20043;-88
2021/03/09 12:22:04;;;;;;;1.58;0.77;;;8.00;95.70;;;;;;5032233;28;20044;-87
2021/03/09 12:24:30;;;;;;;1.05;0.90;;;8.00;95.70;;;;;;5032256;28;20048;-88
2021/03/09 12:26:55;;;;;;;2.38;1.20;;;8.00;95.70;;;;;;5032497;28;20533;-88
2021/03/09 12:29:21;;;;;;;1.23;1.00;;;8.10;95.90;;;;;;5014805;28;20025;-88
2021/03/09 12:31:47;;;;;;;2.22;1.20;;;8.10;95.90;;;;;;5014651;28;20068;-86
2021/03/09 12:34:12;;;;;;;2.58;1.52;;;8.10;96.00;;;;;;5030872;28;20044;-88
2021/03/09 12:36:38;;;;;;;2.22;1.10;;;8.20;95.80;;;;;;4998282;28;20474;-88
2021/03/09 12:39:04;;;;;;;1.85;1.15;;;8.20;95.50;;;;;;5032185;28;20018;-87
2021/03/09 12:41:29;;;;;;;1.90;0.90;;;8.20;95.50;;;;;;5032505;28;20467;-87
2021/03/09 12:43:55;;;;;;;1.45;1.00;;;8.20;95.50;;;;;;5032858;28;20034;-87
2021/03/09 12:46:20;;;;;;;2.35;0.80;;;8.20;95.50;;;;;;5014391;28;20036;-87
2021/03/09 12:48:46;;;;;;;2.00;1.05;;;8.20;95.60;;;;;;5014671;28;20057;-88